sensor_id;sensor_type;location;lat;lon;timestamp;P1;durP1;ratioP1;P2;durP2;ratioP2
41221;SDS011;26952;42.884;23.918;2022-12-07T00:00:55;21.65;;;16.20;;
41221;SDS011;26952;42.884;23.918;2022-12-07T00:03:28;22.08;;;15.77;;
41221;SDS011;26952;42.884;23.918;2022-12-07T00:05:56;23.17;;;16.23;;
41221;SDS011;26952;42.884;23.918;2022-12-07T00:08:22;22.52;;;15.77;;
41221;SDS011;26952;42.884;23.918;2022-12-07T00:10:48;20.10;;;15.43;;
41221;SDS011;26952;42.884;23.918;2022-12-07T00:13:13;22.38;;;15.65;;
41221;SDS011;26952;42.884;23.918;2022-12-07T00:15:38;24.92;;;15.90;;
41221;SDS011;26952;42.884;23.918;2022-12-07T00:18:04;24.08;;;17.33;;
41221;SDS011;26952;42.884;23.918;2022-12-07T00:20:29;23.80;;;16.80;;
41221;SDS011;26952;42.884;23.918;2022-12-07T00:22:56;22.15;;;17.02;;
41221;SDS011;26952;42.884;23.918;2022-12-07T00:25:21;22.17;;;16.17;;
41221;SDS011;26952;42.884;23.918;2022-12-07T00:27:47;21.65;;;16.48;;
41221;SDS011;26952;42.884;23.918;2022-12-07T00:30:12;23.85;;;17.73;;
41221;SDS011;26952;42.884;23.918;2022-12-07T00:32:38;24.75;;;18.08;;
41221;SDS011;26952;42.884;23.918;2022-12-07T00:35:03;27.45;;;20.40;;
41221;SDS011;26952;42.884;23.918;2022-12-07T00:37:29;29.30;;;19.77;;
41221;SDS011;26952;42.884;23.918;2022-12-07T00:39:54;29.35;;;20.10;;
41221;SDS011;26952;42.884;23.918;2022-12-07T00:42:19;25.67;;;21.25;;
41221;SDS011;26952;42.884;23.918;2022-12-07T00:44:45;27.75;;;21.23;;
41221;SDS011;26952;42.884;23.918;2022-12-07T00:47:10;28.50;;;20.95;;
41221;SDS011;26952;42.884;23.918;2022-12-07T00:49:35;28.15;;;21.20;;
41221;SDS011;26952;42.884;23.918;2022-12-07T00:52:01;26.38;;;20.70;;
41221;SDS011;26952;42.884;23.918;2022-12-07T00:54:26;25.70;;;20.27;;
41221;SDS011;26952;42.884;23.918;2022-12-07T00:56:52;21.73;;;18.88;;
41221;SDS011;26952;42.884;23.918;2022-12-07T00:59:17;21.98;;;18.80;;
41221;SDS011;26952;42.884;23.918;2022-12-07T01:01:42;23.98;;;20.33;;
41221;SDS011;26952;42.884;23.918;2022-12-07T01:04:08;20.90;;;17.63;;
41221;SDS011;26952;42.884;23.918;2022-12-07T01:06:33;27.83;;;20.00;;
41221;SDS011;26952;42.884;23.918;2022-12-07T01:08:59;28.17;;;21.48;;
41221;SDS011;26952;42.884;23.918;2022-12-07T01:11:26;29.73;;;22.40;;
41221;SDS011;26952;42.884;23.918;2022-12-07T01:13:54;27.30;;;21.98;;
41221;SDS011;26952;42.884;23.918;2022-12-07T01:16:22;29.42;;;21.90;;
41221;SDS011;26952;42.884;23.918;2022-12-07T01:18:49;27.73;;;21.60;;
41221;SDS011;26952;42.884;23.918;2022-12-07T01:21:18;26.50;;;21.85;;
41221;SDS011;26952;42.884;23.918;2022-12-07T01:23:53;27.20;;;22.80;;
41221;SDS011;26952;42.884;23.918;2022-12-07T01:26:21;26.45;;;20.75;;
41221;SDS011;26952;42.884;23.918;2022-12-07T01:28:48;27.65;;;21.13;;
41221;SDS011;26952;42.884;23.918;2022-12-07T01:31:15;33.88;;;25.85;;
41221;SDS011;26952;42.884;23.918;2022-12-07T01:33:50;30.80;;;24.42;;
41221;SDS011;26952;42.884;23.918;2022-12-07T01:36:27;26.45;;;21.60;;
41221;SDS011;26952;42.884;23.918;2022-12-07T01:38:58;32.35;;;20.40;;
41221;SDS011;26952;42.884;23.918;2022-12-07T01:41:26;29.92;;;20.80;;
41221;SDS011;26952;42.884;23.918;2022-12-07T01:44:08;30.45;;;19.45;;
41221;SDS011;26952;42.884;23.918;2022-12-07T01:46:41;28.33;;;19.00;;
41221;SDS011;26952;42.884;23.918;2022-12-07T01:52:10;29.88;;;19.98;;
41221;SDS011;26952;42.884;23.918;2022-12-07T01:54:50;28.98;;;19.23;;
41221;SDS011;26952;42.884;23.918;2022-12-07T01:57:19;27.08;;;20.05;;
41221;SDS011;26952;42.884;23.918;2022-12-07T01:59:45;30.55;;;21.38;;
41221;SDS011;26952;42.884;23.918;2022-12-07T02:02:17;35.58;;;24.55;;
41221;SDS011;26952;42.884;23.918;2022-12-07T02:04:45;32.35;;;23.63;;
41221;SDS011;26952;42.884;23.918;2022-12-07T02:07:11;28.33;;;23.58;;
41221;SDS011;26952;42.884;23.918;2022-12-07T02:09:37;27.25;;;21.67;;
41221;SDS011;26952;42.884;23.918;2022-12-07T02:12:02;28.02;;;24.20;;
41221;SDS011;26952;42.884;23.918;2022-12-07T02:14:28;29.30;;;23.55;;
41221;SDS011;26952;42.884;23.918;2022-12-07T02:17:41;27.38;;;23.40;;
41221;SDS011;26952;42.884;23.918;2022-12-07T02:19:56;25.67;;;22.13;;
41221;SDS011;26952;42.884;23.918;2022-12-07T02:30:38;37.50;;;29.05;;
41221;SDS011;26952;42.884;23.918;2022-12-07T02:33:10;33.35;;;26.23;;
41221;SDS011;26952;42.884;23.918;2022-12-07T02:35:40;29.05;;;24.08;;
41221;SDS011;26952;42.884;23.918;2022-12-07T02:43:41;35.38;;;25.70;;
41221;SDS011;26952;42.884;23.918;2022-12-07T02:46:13;45.67;;;35.20;;
41221;SDS011;26952;42.884;23.918;2022-12-07T02:48:41;50.53;;;38.50;;
41221;SDS011;26952;42.884;23.918;2022-12-07T02:51:08;41.30;;;32.65;;
41221;SDS011;26952;42.884;23.918;2022-12-07T02:56:13;37.47;;;30.50;;
41221;SDS011;26952;42.884;23.918;2022-12-07T02:59:02;38.15;;;30.33;;
41221;SDS011;26952;42.884;23.918;2022-12-07T03:06:42;25.40;;;22.20;;
41221;SDS011;26952;42.884;23.918;2022-12-07T03:09:15;26.52;;;22.50;;
41221;SDS011;26952;42.884;23.918;2022-12-07T03:11:53;23.98;;;21.30;;
41221;SDS011;26952;42.884;23.918;2022-12-07T03:14:33;43.38;;;31.27;;
41221;SDS011;26952;42.884;23.918;2022-12-07T03:19:37;31.85;;;21.88;;
41221;SDS011;26952;42.884;23.918;2022-12-07T03:22:11;25.88;;;18.27;;
41221;SDS011;26952;42.884;23.918;2022-12-07T03:24:40;22.00;;;18.23;;
41221;SDS011;26952;42.884;23.918;2022-12-07T03:27:08;24.95;;;18.65;;
41221;SDS011;26952;42.884;23.918;2022-12-07T03:29:40;22.75;;;19.30;;
41221;SDS011;26952;42.884;23.918;2022-12-07T03:32:19;22.08;;;18.17;;
41221;SDS011;26952;42.884;23.918;2022-12-07T03:37:34;19.98;;;17.52;;
41221;SDS011;26952;42.884;23.918;2022-12-07T03:40:39;21.65;;;18.08;;
41221;SDS011;26952;42.884;23.918;2022-12-07T03:43:09;27.48;;;17.92;;
41221;SDS011;26952;42.884;23.918;2022-12-07T03:45:43;24.77;;;19.13;;
41221;SDS011;26952;42.884;23.918;2022-12-07T03:54:00;29.80;;;22.40;;
41221;SDS011;26952;42.884;23.918;2022-12-07T03:56:32;26.17;;;20.27;;
41221;SDS011;26952;42.884;23.918;2022-12-07T03:58:59;24.70;;;19.45;;
41221;SDS011;26952;42.884;23.918;2022-12-07T04:01:25;26.20;;;19.35;;
41221;SDS011;26952;42.884;23.918;2022-12-07T04:03:50;27.67;;;17.30;;
41221;SDS011;26952;42.884;23.918;2022-12-07T04:06:16;24.50;;;17.90;;
41221;SDS011;26952;42.884;23.918;2022-12-07T04:08:41;23.60;;;16.60;;
41221;SDS011;26952;42.884;23.918;2022-12-07T04:11:06;27.52;;;16.92;;
41221;SDS011;26952;42.884;23.918;2022-12-07T04:13:32;27.70;;;18.38;;
41221;SDS011;26952;42.884;23.918;2022-12-07T04:16:17;29.13;;;18.35;;
41221;SDS011;26952;42.884;23.918;2022-12-07T04:18:43;31.17;;;18.50;;
41221;SDS011;26952;42.884;23.918;2022-12-07T04:21:08;27.02;;;18.02;;
41221;SDS011;26952;42.884;23.918;2022-12-07T04:23:33;29.35;;;20.17;;
41221;SDS011;26952;42.884;23.918;2022-12-07T04:25:59;25.13;;;18.05;;
41221;SDS011;26952;42.884;23.918;2022-12-07T04:28:24;21.27;;;16.13;;
41221;SDS011;26952;42.884;23.918;2022-12-07T04:30:50;21.50;;;15.18;;
41221;SDS011;26952;42.884;23.918;2022-12-07T04:33:15;19.05;;;14.75;;
41221;SDS011;26952;42.884;23.918;2022-12-07T04:35:42;18.40;;;13.98;;
41221;SDS011;26952;42.884;23.918;2022-12-07T04:38:07;21.48;;;14.65;;
41221;SDS011;26952;42.884;23.918;2022-12-07T04:40:33;21.63;;;14.07;;
41221;SDS011;26952;42.884;23.918;2022-12-07T04:42:59;24.60;;;18.88;;
41221;SDS011;26952;42.884;23.918;2022-12-07T04:45:25;19.58;;;13.60;;
41221;SDS011;26952;42.884;23.918;2022-12-07T04:47:50;21.23;;;15.95;;
41221;SDS011;26952;42.884;23.918;2022-12-07T04:50:15;19.40;;;13.85;;
41221;SDS011;26952;42.884;23.918;2022-12-07T04:52:41;24.92;;;17.23;;
41221;SDS011;26952;42.884;23.918;2022-12-07T04:55:06;31.67;;;21.25;;
41221;SDS011;26952;42.884;23.918;2022-12-07T04:57:32;24.90;;;21.20;;
41221;SDS011;26952;42.884;23.918;2022-12-07T04:59:57;28.08;;;21.83;;
41221;SDS011;26952;42.884;23.918;2022-12-07T05:02:23;24.30;;;18.85;;
41221;SDS011;26952;42.884;23.918;2022-12-07T05:04:48;28.75;;;20.35;;
41221;SDS011;26952;42.884;23.918;2022-12-07T05:07:13;27.27;;;21.17;;
41221;SDS011;26952;42.884;23.918;2022-12-07T05:09:39;34.45;;;24.45;;
41221;SDS011;26952;42.884;23.918;2022-12-07T05:12:04;33.28;;;24.20;;
41221;SDS011;26952;42.884;23.918;2022-12-07T05:14:30;29.85;;;22.77;;
41221;SDS011;26952;42.884;23.918;2022-12-07T05:16:55;30.75;;;23.67;;
41221;SDS011;26952;42.884;23.918;2022-12-07T05:19:20;31.77;;;21.67;;
41221;SDS011;26952;42.884;23.918;2022-12-07T05:21:46;27.42;;;20.80;;
41221;SDS011;26952;42.884;23.918;2022-12-07T05:24:13;28.52;;;20.75;;
41221;SDS011;26952;42.884;23.918;2022-12-07T05:26:39;25.67;;;18.30;;
41221;SDS011;26952;42.884;23.918;2022-12-07T05:29:05;28.30;;;15.68;;
41221;SDS011;26952;42.884;23.918;2022-12-07T05:31:31;24.13;;;14.98;;
41221;SDS011;26952;42.884;23.918;2022-12-07T05:33:57;16.50;;;11.95;;
41221;SDS011;26952;42.884;23.918;2022-12-07T05:36:23;20.35;;;12.25;;
41221;SDS011;26952;42.884;23.918;2022-12-07T05:38:48;16.25;;;11.07;;
41221;SDS011;26952;42.884;23.918;2022-12-07T05:41:15;16.65;;;10.85;;
41221;SDS011;26952;42.884;23.918;2022-12-07T05:44:01;15.25;;;9.68;;
41221;SDS011;26952;42.884;23.918;2022-12-07T05:46:26;17.08;;;10.13;;
41221;SDS011;26952;42.884;23.918;2022-12-07T05:48:52;18.10;;;11.63;;
41221;SDS011;26952;42.884;23.918;2022-12-07T05:51:17;20.80;;;12.80;;
41221;SDS011;26952;42.884;23.918;2022-12-07T05:53:43;15.50;;;11.90;;
41221;SDS011;26952;42.884;23.918;2022-12-07T05:56:09;22.40;;;13.13;;
41221;SDS011;26952;42.884;23.918;2022-12-07T05:58:35;20.05;;;14.70;;
41221;SDS011;26952;42.884;23.918;2022-12-07T06:01:19;20.38;;;13.27;;
41221;SDS011;26952;42.884;23.918;2022-12-07T06:03:44;18.33;;;13.43;;
41221;SDS011;26952;42.884;23.918;2022-12-07T06:06:10;18.70;;;14.00;;
41221;SDS011;26952;42.884;23.918;2022-12-07T06:08:36;23.88;;;15.50;;
41221;SDS011;26952;42.884;23.918;2022-12-07T06:11:01;17.08;;;15.23;;
41221;SDS011;26952;42.884;23.918;2022-12-07T06:13:45;18.05;;;13.93;;
41221;SDS011;26952;42.884;23.918;2022-12-07T06:16:10;18.20;;;15.98;;
41221;SDS011;26952;42.884;23.918;2022-12-07T06:18:36;19.33;;;15.00;;
41221;SDS011;26952;42.884;23.918;2022-12-07T06:21:01;17.77;;;15.80;;
41221;SDS011;26952;42.884;23.918;2022-12-07T06:23:26;17.42;;;15.30;;
41221;SDS011;26952;42.884;23.918;2022-12-07T06:25:52;16.88;;;15.13;;
41221;SDS011;26952;42.884;23.918;2022-12-07T06:28:17;14.98;;;11.98;;
41221;SDS011;26952;42.884;23.918;2022-12-07T06:30:43;15.13;;;13.48;;
41221;SDS011;26952;42.884;23.918;2022-12-07T06:33:08;22.73;;;16.58;;
41221;SDS011;26952;42.884;23.918;2022-12-07T06:35:33;21.20;;;19.00;;
41221;SDS011;26952;42.884;23.918;2022-12-07T06:37:59;27.65;;;23.75;;
41221;SDS011;26952;42.884;23.918;2022-12-07T06:40:24;25.67;;;22.83;;
41221;SDS011;26952;42.884;23.918;2022-12-07T06:42:49;25.75;;;23.17;;
41221;SDS011;26952;42.884;23.918;2022-12-07T06:45:15;29.77;;;26.33;;
41221;SDS011;26952;42.884;23.918;2022-12-07T06:47:41;29.95;;;26.92;;
41221;SDS011;26952;42.884;23.918;2022-12-07T06:50:06;31.67;;;28.90;;
41221;SDS011;26952;42.884;23.918;2022-12-07T06:52:32;33.72;;;30.65;;
41221;SDS011;26952;42.884;23.918;2022-12-07T06:54:58;31.63;;;28.77;;
41221;SDS011;26952;42.884;23.918;2022-12-07T06:57:24;28.55;;;25.90;;
41221;SDS011;26952;42.884;23.918;2022-12-07T06:59:50;30.95;;;27.98;;
41221;SDS011;26952;42.884;23.918;2022-12-07T07:02:15;31.88;;;28.55;;
41221;SDS011;26952;42.884;23.918;2022-12-07T07:04:41;27.52;;;25.08;;
41221;SDS011;26952;42.884;23.918;2022-12-07T07:07:06;23.67;;;21.88;;
41221;SDS011;26952;42.884;23.918;2022-12-07T07:09:31;24.15;;;22.10;;
41221;SDS011;26952;42.884;23.918;2022-12-07T07:11:57;23.75;;;21.83;;
41221;SDS011;26952;42.884;23.918;2022-12-07T07:14:22;19.25;;;17.20;;
41221;SDS011;26952;42.884;23.918;2022-12-07T07:16:48;18.05;;;16.75;;
41221;SDS011;26952;42.884;23.918;2022-12-07T07:19:13;15.98;;;14.60;;
41221;SDS011;26952;42.884;23.918;2022-12-07T07:21:38;14.40;;;13.15;;
41221;SDS011;26952;42.884;23.918;2022-12-07T07:24:04;15.15;;;13.88;;
41221;SDS011;26952;42.884;23.918;2022-12-07T07:26:29;16.90;;;15.60;;
41221;SDS011;26952;42.884;23.918;2022-12-07T07:28:55;18.10;;;16.67;;
41221;SDS011;26952;42.884;23.918;2022-12-07T07:31:20;18.17;;;16.48;;
41221;SDS011;26952;42.884;23.918;2022-12-07T07:33:46;20.65;;;18.90;;
41221;SDS011;26952;42.884;23.918;2022-12-07T07:36:12;18.13;;;16.58;;
41221;SDS011;26952;42.884;23.918;2022-12-07T07:38:37;18.50;;;16.67;;
41221;SDS011;26952;42.884;23.918;2022-12-07T07:41:03;20.85;;;18.88;;
41221;SDS011;26952;42.884;23.918;2022-12-07T07:43:28;18.45;;;16.55;;
41221;SDS011;26952;42.884;23.918;2022-12-07T07:45:54;31.02;;;27.45;;
41221;SDS011;26952;42.884;23.918;2022-12-07T07:48:19;32.85;;;29.65;;
41221;SDS011;26952;42.884;23.918;2022-12-07T07:50:45;26.55;;;23.83;;
41221;SDS011;26952;42.884;23.918;2022-12-07T07:53:10;37.53;;;30.95;;
41221;SDS011;26952;42.884;23.918;2022-12-07T07:55:36;28.58;;;25.58;;
41221;SDS011;26952;42.884;23.918;2022-12-07T07:58:01;18.55;;;16.63;;
41221;SDS011;26952;42.884;23.918;2022-12-07T08:00:27;19.30;;;16.38;;
41221;SDS011;26952;42.884;23.918;2022-12-07T08:02:52;22.55;;;20.45;;
41221;SDS011;26952;42.884;23.918;2022-12-07T08:05:17;32.00;;;28.60;;
41221;SDS011;26952;42.884;23.918;2022-12-07T08:07:43;27.80;;;25.20;;
41221;SDS011;26952;42.884;23.918;2022-12-07T08:10:09;26.00;;;23.42;;
41221;SDS011;26952;42.884;23.918;2022-12-07T08:12:39;30.08;;;24.48;;
41221;SDS011;26952;42.884;23.918;2022-12-07T08:15:25;24.75;;;18.08;;
41221;SDS011;26952;42.884;23.918;2022-12-07T08:17:55;29.85;;;23.15;;
41221;SDS011;26952;42.884;23.918;2022-12-07T08:20:20;36.67;;;25.65;;
41221;SDS011;26952;42.884;23.918;2022-12-07T08:22:46;28.63;;;22.63;;
41221;SDS011;26952;42.884;23.918;2022-12-07T08:25:11;23.20;;;16.92;;
41221;SDS011;26952;42.884;23.918;2022-12-07T08:27:36;23.38;;;18.83;;
41221;SDS011;26952;42.884;23.918;2022-12-07T08:30:02;20.67;;;18.48;;
41221;SDS011;26952;42.884;23.918;2022-12-07T08:32:28;22.38;;;20.15;;
41221;SDS011;26952;42.884;23.918;2022-12-07T08:34:53;23.05;;;20.90;;
41221;SDS011;26952;42.884;23.918;2022-12-07T08:37:18;30.15;;;27.73;;
41221;SDS011;26952;42.884;23.918;2022-12-07T08:39:44;29.15;;;26.88;;
41221;SDS011;26952;42.884;23.918;2022-12-07T08:42:09;21.35;;;19.45;;
41221;SDS011;26952;42.884;23.918;2022-12-07T08:44:35;23.38;;;21.33;;
41221;SDS011;26952;42.884;23.918;2022-12-07T08:47:01;19.10;;;17.33;;
41221;SDS011;26952;42.884;23.918;2022-12-07T08:49:36;18.33;;;16.63;;
41221;SDS011;26952;42.884;23.918;2022-12-07T08:52:06;19.48;;;17.70;;
41221;SDS011;26952;42.884;23.918;2022-12-07T08:54:32;24.73;;;22.88;;
41221;SDS011;26952;42.884;23.918;2022-12-07T08:57:01;29.08;;;26.90;;
41221;SDS011;26952;42.884;23.918;2022-12-07T08:59:26;30.00;;;27.73;;
41221;SDS011;26952;42.884;23.918;2022-12-07T09:01:53;29.92;;;27.88;;
41221;SDS011;26952;42.884;23.918;2022-12-07T09:04:19;29.35;;;27.15;;
41221;SDS011;26952;42.884;23.918;2022-12-07T09:06:45;33.75;;;31.45;;
41221;SDS011;26952;42.884;23.918;2022-12-07T09:09:12;33.22;;;31.08;;
41221;SDS011;26952;42.884;23.918;2022-12-07T09:11:38;31.38;;;29.00;;
41221;SDS011;26952;42.884;23.918;2022-12-07T09:14:04;27.83;;;25.77;;
41221;SDS011;26952;42.884;23.918;2022-12-07T09:16:30;26.77;;;24.63;;
41221;SDS011;26952;42.884;23.918;2022-12-07T09:18:55;18.98;;;17.35;;
41221;SDS011;26952;42.884;23.918;2022-12-07T09:21:21;16.48;;;15.07;;
41221;SDS011;26952;42.884;23.918;2022-12-07T09:23:46;14.95;;;13.57;;
41221;SDS011;26952;42.884;23.918;2022-12-07T09:26:12;18.63;;;17.05;;
41221;SDS011;26952;42.884;23.918;2022-12-07T09:28:37;19.48;;;18.10;;
41221;SDS011;26952;42.884;23.918;2022-12-07T09:31:04;24.55;;;22.95;;
41221;SDS011;26952;42.884;23.918;2022-12-07T09:33:30;25.17;;;22.98;;
41221;SDS011;26952;42.884;23.918;2022-12-07T09:35:55;28.55;;;26.50;;
41221;SDS011;26952;42.884;23.918;2022-12-07T09:38:21;31.75;;;29.65;;
41221;SDS011;26952;42.884;23.918;2022-12-07T09:40:47;29.85;;;27.85;;
41221;SDS011;26952;42.884;23.918;2022-12-07T09:43:13;27.58;;;25.63;;
41221;SDS011;26952;42.884;23.918;2022-12-07T09:45:44;27.80;;;25.80;;
41221;SDS011;26952;42.884;23.918;2022-12-07T09:48:22;29.45;;;27.35;;
41221;SDS011;26952;42.884;23.918;2022-12-07T09:50:51;26.38;;;24.45;;
41221;SDS011;26952;42.884;23.918;2022-12-07T09:53:28;26.98;;;24.98;;
41221;SDS011;26952;42.884;23.918;2022-12-07T09:56:04;25.27;;;23.55;;
41221;SDS011;26952;42.884;23.918;2022-12-07T09:58:30;23.25;;;21.35;;
41221;SDS011;26952;42.884;23.918;2022-12-07T10:00:59;21.70;;;19.98;;
41221;SDS011;26952;42.884;23.918;2022-12-07T10:03:30;23.75;;;22.02;;
41221;SDS011;26952;42.884;23.918;2022-12-07T10:05:55;23.70;;;22.00;;
41221;SDS011;26952;42.884;23.918;2022-12-07T10:08:22;24.13;;;22.10;;
41221;SDS011;26952;42.884;23.918;2022-12-07T10:10:51;23.20;;;21.27;;
41221;SDS011;26952;42.884;23.918;2022-12-07T10:13:20;27.02;;;25.02;;
41221;SDS011;26952;42.884;23.918;2022-12-07T10:15:49;29.55;;;27.35;;
41221;SDS011;26952;42.884;23.918;2022-12-07T10:23:37;38.40;;;35.85;;
41221;SDS011;26952;42.884;23.918;2022-12-07T10:28:52;28.70;;;27.00;;
41221;SDS011;26952;42.884;23.918;2022-12-07T10:31:19;26.25;;;24.40;;
41221;SDS011;26952;42.884;23.918;2022-12-07T10:33:57;30.85;;;28.45;;
41221;SDS011;26952;42.884;23.918;2022-12-07T10:36:26;43.10;;;40.20;;
41221;SDS011;26952;42.884;23.918;2022-12-07T10:39:17;34.78;;;32.55;;
41221;SDS011;26952;42.884;23.918;2022-12-07T10:44:22;38.72;;;35.95;;
41221;SDS011;26952;42.884;23.918;2022-12-07T10:46:52;34.50;;;31.73;;
41221;SDS011;26952;42.884;23.918;2022-12-07T10:49:37;37.78;;;35.17;;
41221;SDS011;26952;42.884;23.918;2022-12-07T10:52:29;40.15;;;37.40;;
41221;SDS011;26952;42.884;23.918;2022-12-07T10:55:08;32.42;;;30.15;;
41221;SDS011;26952;42.884;23.918;2022-12-07T11:00:22;40.15;;;37.45;;
41221;SDS011;26952;42.884;23.918;2022-12-07T11:05:41;31.40;;;28.92;;
41221;SDS011;26952;42.884;23.918;2022-12-07T11:13:25;43.53;;;40.88;;
41221;SDS011;26952;42.884;23.918;2022-12-07T11:24:17;33.90;;;31.50;;
41221;SDS011;26952;42.884;23.918;2022-12-07T11:26:59;45.92;;;42.92;;
41221;SDS011;26952;42.884;23.918;2022-12-07T11:34:44;39.17;;;36.35;;
41221;SDS011;26952;42.884;23.918;2022-12-07T11:37:34;40.33;;;37.95;;
41221;SDS011;26952;42.884;23.918;2022-12-07T11:40:48;41.60;;;39.15;;
41221;SDS011;26952;42.884;23.918;2022-12-07T11:42:57;39.35;;;36.67;;
41221;SDS011;26952;42.884;23.918;2022-12-07T11:45:27;43.55;;;40.60;;
41221;SDS011;26952;42.884;23.918;2022-12-07T11:48:01;48.63;;;45.40;;
41221;SDS011;26952;42.884;23.918;2022-12-07T11:58:04;43.55;;;40.75;;
41221;SDS011;26952;42.884;23.918;2022-12-07T12:01:46;32.50;;;29.85;;
41221;SDS011;26952;42.884;23.918;2022-12-07T12:06:31;30.25;;;27.70;;
41221;SDS011;26952;42.884;23.918;2022-12-07T12:17:44;36.47;;;33.92;;
41221;SDS011;26952;42.884;23.918;2022-12-07T12:20:27;34.13;;;31.63;;
41221;SDS011;26952;42.884;23.918;2022-12-07T12:22:58;28.08;;;25.75;;
41221;SDS011;26952;42.884;23.918;2022-12-07T12:25:40;24.05;;;22.10;;
41221;SDS011;26952;42.884;23.918;2022-12-07T12:28:28;25.92;;;23.52;;
41221;SDS011;26952;42.884;23.918;2022-12-07T12:31:17;22.83;;;20.95;;
41221;SDS011;26952;42.884;23.918;2022-12-07T12:34:00;21.98;;;20.30;;
41221;SDS011;26952;42.884;23.918;2022-12-07T12:51:41;17.13;;;15.77;;
41221;SDS011;26952;42.884;23.918;2022-12-07T12:54:14;16.35;;;14.90;;
41221;SDS011;26952;42.884;23.918;2022-12-07T12:56:46;17.45;;;16.08;;
41221;SDS011;26952;42.884;23.918;2022-12-07T13:01:48;15.10;;;13.70;;
41221;SDS011;26952;42.884;23.918;2022-12-07T13:06:49;14.45;;;13.07;;
41221;SDS011;26952;42.884;23.918;2022-12-07T13:09:22;16.60;;;15.10;;
41221;SDS011;26952;42.884;23.918;2022-12-07T13:11:55;20.40;;;18.83;;
41221;SDS011;26952;42.884;23.918;2022-12-07T13:17:08;24.63;;;22.83;;
41221;SDS011;26952;42.884;23.918;2022-12-07T13:19:54;33.17;;;30.75;;
41221;SDS011;26952;42.884;23.918;2022-12-07T13:27:33;45.42;;;42.67;;
41221;SDS011;26952;42.884;23.918;2022-12-07T13:30:02;41.03;;;38.60;;
41221;SDS011;26952;42.884;23.918;2022-12-07T13:32:38;36.22;;;33.83;;
41221;SDS011;26952;42.884;23.918;2022-12-07T13:35:26;35.22;;;32.70;;
41221;SDS011;26952;42.884;23.918;2022-12-07T13:38:04;34.42;;;32.30;;
41221;SDS011;26952;42.884;23.918;2022-12-07T13:40:41;35.28;;;32.92;;
41221;SDS011;26952;42.884;23.918;2022-12-07T13:43:11;37.67;;;35.08;;
41221;SDS011;26952;42.884;23.918;2022-12-07T13:45:39;36.35;;;34.13;;
41221;SDS011;26952;42.884;23.918;2022-12-07T13:51:00;20.95;;;19.15;;
41221;SDS011;26952;42.884;23.918;2022-12-07T13:53:28;16.33;;;15.10;;
41221;SDS011;26952;42.884;23.918;2022-12-07T13:55:55;12.90;;;11.90;;
41221;SDS011;26952;42.884;23.918;2022-12-07T13:58:22;15.90;;;14.30;;
41221;SDS011;26952;42.884;23.918;2022-12-07T14:00:48;15.65;;;14.45;;
41221;SDS011;26952;42.884;23.918;2022-12-07T14:05:40;17.13;;;15.75;;
41221;SDS011;26952;42.884;23.918;2022-12-07T14:10:40;22.08;;;20.50;;
41221;SDS011;26952;42.884;23.918;2022-12-07T14:16:00;28.15;;;26.23;;
41221;SDS011;26952;42.884;23.918;2022-12-07T14:21:14;24.73;;;23.27;;
41221;SDS011;26952;42.884;23.918;2022-12-07T14:23:43;22.90;;;21.02;;
41221;SDS011;26952;42.884;23.918;2022-12-07T14:26:15;18.75;;;17.17;;
41221;SDS011;26952;42.884;23.918;2022-12-07T14:28:46;14.18;;;13.05;;
41221;SDS011;26952;42.884;23.918;2022-12-07T14:31:16;11.93;;;10.73;;
41221;SDS011;26952;42.884;23.918;2022-12-07T14:33:43;10.38;;;8.85;;
41221;SDS011;26952;42.884;23.918;2022-12-07T14:36:09;9.35;;;8.45;;
41221;SDS011;26952;42.884;23.918;2022-12-07T14:38:37;8.55;;;7.53;;
41221;SDS011;26952;42.884;23.918;2022-12-07T14:41:03;11.95;;;9.18;;
41221;SDS011;26952;42.884;23.918;2022-12-07T14:43:49;10.25;;;9.13;;
41221;SDS011;26952;42.884;23.918;2022-12-07T14:46:15;11.40;;;10.23;;
41221;SDS011;26952;42.884;23.918;2022-12-07T14:48:40;13.05;;;11.75;;
41221;SDS011;26952;42.884;23.918;2022-12-07T14:51:07;14.48;;;13.07;;
41221;SDS011;26952;42.884;23.918;2022-12-07T14:53:39;15.35;;;13.80;;
41221;SDS011;26952;42.884;23.918;2022-12-07T14:56:07;14.30;;;12.90;;
41221;SDS011;26952;42.884;23.918;2022-12-07T14:58:33;14.30;;;13.00;;
41221;SDS011;26952;42.884;23.918;2022-12-07T15:00:59;17.13;;;15.75;;
41221;SDS011;26952;42.884;23.918;2022-12-07T15:03:24;16.67;;;15.15;;
41221;SDS011;26952;42.884;23.918;2022-12-07T15:05:50;17.63;;;16.38;;
41221;SDS011;26952;42.884;23.918;2022-12-07T15:08:15;17.58;;;15.60;;
41221;SDS011;26952;42.884;23.918;2022-12-07T15:10:41;17.55;;;16.23;;
41221;SDS011;26952;42.884;23.918;2022-12-07T15:13:06;18.80;;;17.52;;
41221;SDS011;26952;42.884;23.918;2022-12-07T15:15:51;18.05;;;16.55;;
41221;SDS011;26952;42.884;23.918;2022-12-07T15:18:18;24.23;;;22.02;;
41221;SDS011;26952;42.884;23.918;2022-12-07T15:20:45;20.50;;;18.92;;
41221;SDS011;26952;42.884;23.918;2022-12-07T15:23:11;21.00;;;19.60;;
41221;SDS011;26952;42.884;23.918;2022-12-07T15:25:40;19.88;;;18.48;;
41221;SDS011;26952;42.884;23.918;2022-12-07T15:28:07;19.73;;;18.43;;
41221;SDS011;26952;42.884;23.918;2022-12-07T15:30:32;19.65;;;18.08;;
41221;SDS011;26952;42.884;23.918;2022-12-07T15:32:57;17.80;;;16.25;;
41221;SDS011;26952;42.884;23.918;2022-12-07T15:35:23;15.05;;;14.00;;
41221;SDS011;26952;42.884;23.918;2022-12-07T15:37:48;17.75;;;12.98;;
41221;SDS011;26952;42.884;23.918;2022-12-07T15:40:13;12.23;;;8.23;;
41221;SDS011;26952;42.884;23.918;2022-12-07T15:42:39;8.15;;;6.80;;
41221;SDS011;26952;42.884;23.918;2022-12-07T15:45:05;11.45;;;8.68;;
41221;SDS011;26952;42.884;23.918;2022-12-07T15:47:33;16.60;;;8.43;;
41221;SDS011;26952;42.884;23.918;2022-12-07T15:50:01;12.32;;;6.40;;
41221;SDS011;26952;42.884;23.918;2022-12-07T15:52:32;10.80;;;6.90;;
41221;SDS011;26952;42.884;23.918;2022-12-07T15:54:58;8.02;;;7.22;;
41221;SDS011;26952;42.884;23.918;2022-12-07T15:57:25;15.68;;;7.70;;
41221;SDS011;26952;42.884;23.918;2022-12-07T15:59:51;8.98;;;7.80;;
41221;SDS011;26952;42.884;23.918;2022-12-07T16:02:17;10.48;;;7.80;;
41221;SDS011;26952;42.884;23.918;2022-12-07T16:04:42;8.85;;;7.95;;
41221;SDS011;26952;42.884;23.918;2022-12-07T16:07:08;9.73;;;8.65;;
41221;SDS011;26952;42.884;23.918;2022-12-07T16:09:33;10.13;;;8.20;;
41221;SDS011;26952;42.884;23.918;2022-12-07T16:11:59;8.40;;;7.07;;
41221;SDS011;26952;42.884;23.918;2022-12-07T16:14:24;8.80;;;6.95;;
41221;SDS011;26952;42.884;23.918;2022-12-07T16:16:50;9.30;;;6.85;;
41221;SDS011;26952;42.884;23.918;2022-12-07T16:19:15;7.18;;;6.53;;
41221;SDS011;26952;42.884;23.918;2022-12-07T16:21:41;8.57;;;6.50;;
41221;SDS011;26952;42.884;23.918;2022-12-07T16:24:07;11.15;;;6.28;;
41221;SDS011;26952;42.884;23.918;2022-12-07T16:26:33;9.25;;;6.85;;
41221;SDS011;26952;42.884;23.918;2022-12-07T16:28:58;10.88;;;6.90;;
41221;SDS011;26952;42.884;23.918;2022-12-07T16:31:25;7.10;;;6.30;;